トロムソ の空港の天気 - METARとTAF

トロムソ空港 ( ENTC / TOS ) - ノルウェー トロムス県トロムソ
飛行場実況気象(Metar)
観測時間11/22 13:50 CET (11/22 12:50 UTC)
風向・風速南東 3m/s
視程10km以上
天気現象
なし
気温-3℃
湿度42%
気圧1020hPa
METARENTC 221250Z 13006KT 100V190 CAVOK M03/M14 Q1020 NOSIG RMK WIND 2600FT 16021KT
過去の天気等 Google飛行場航空写真 Wunderground天気予報

過去48時間のMETAR

飛行場予報(TAF)
発表時間: -
23日1時 CET ~ 23日13時 CET に一時的に
風向・風速南南西 13m/s
TAF ENTC 2212/2312 18008KT 9999 FEW040 SCT080
TEMPO 2300/2312 20025KT